Time;durP1;ratioP1;P1;durP2;ratioP2;P2;SDS_P1;SDS_P2;PMS_P1;PMS_P2;Temp;Humidity;BMP_temperature;BMP_pressure;BME280_temperature;BME280_humidity;BME280_pressure;Samples;Min_cycle;Max_cycle;Signal;HPM_P1;HPM_P2
2022/10/05 00:00:00;;;;;;;18.88;11.77;;;;;;;8.26;100.00;100880.69;20898333;28;20061;-68
2022/10/05 00:10:02;;;;;;;17.60;9.63;;;;;;;8.20;100.00;100878.09;20897849;28;20118;-68
2022/10/05 00:20:03;;;;;;;15.25;9.40;;;;;;;8.10;100.00;100881.56;20897166;28;20045;-68
2022/10/05 00:30:04;;;;;;;15.45;9.38;;;;;;;8.06;100.00;100890.22;20898060;28;20049;-68
2022/10/05 00:40:06;;;;;;;15.88;9.35;;;;;;;7.96;100.00;100885.00;20897150;28;20053;-68
2022/10/05 00:50:07;;;;;;;15.02;8.50;;;;;;;7.86;100.00;100883.22;20905761;28;20110;-67
2022/10/05 01:00:08;;;;;;;11.77;7.90;;;;;;;7.75;100.00;100884.91;20912230;28;20053;-67
2022/10/05 01:10:10;;;;;;;19.83;9.70;;;;;;;7.75;100.00;100861.44;20911540;28;20057;-69
2022/10/05 01:20:11;;;;;;;25.30;13.15;;;;;;;7.77;100.00;100843.22;20911219;28;20399;-68
2022/10/05 01:30:12;;;;;;;24.05;12.85;;;;;;;7.90;100.00;100839.75;20908183;28;20468;-68
2022/10/05 01:40:13;;;;;;;21.20;11.52;;;;;;;7.91;100.00;100838.91;20909337;28;20111;-68
2022/10/05 01:50:15;;;;;;;22.98;10.90;;;;;;;7.92;100.00;100857.16;20909300;28;20068;-68
2022/10/05 02:00:16;;;;;;;27.80;14.43;;;;;;;8.25;100.00;100850.28;20906585;28;20468;-68
2022/10/05 02:10:18;;;;;;;21.70;11.38;;;;;;;8.36;100.00;100852.88;20907747;28;20119;-68
2022/10/05 02:20:19;;;;;;;25.90;12.10;;;;;;;8.43;100.00;100859.88;20906252;28;20516;-69
2022/10/05 02:30:20;;;;;;;18.23;11.43;;;;;;;8.43;100.00;100855.53;20905490;28;20067;-69
2022/10/05 02:40:22;;;;;;;20.17;12.10;;;;;;;8.43;100.00;100850.31;20905351;28;20052;-68
2022/10/05 02:50:25;;;;;;;22.65;13.50;;;;;;;8.43;100.00;100839.88;20902835;28;20509;-69
2022/10/05 03:00:27;;;;;;;19.75;12.07;;;;;;;8.39;100.00;100819.88;20901739;28;20049;-69
2022/10/05 03:10:28;;;;;;;18.23;11.73;;;;;;;8.37;100.00;100811.16;20901776;28;20501;-68
2022/10/05 03:20:29;;;;;;;27.83;14.50;;;;;;;8.44;100.00;100805.09;20900626;28;20838;-69
2022/10/05 03:30:31;;;;;;;23.05;15.02;;;;;;;8.57;100.00;100805.06;20900849;28;20469;-68
2022/10/05 03:40:32;;;;;;;28.23;16.98;;;;;;;8.70;100.00;100797.22;20899911;28;20494;-69
2022/10/05 03:50:33;;;;;;;39.72;17.48;;;;;;;8.83;100.00;100782.41;20899011;28;20644;-67
2022/10/05 04:00:35;;;;;;;33.08;19.33;;;;;;;8.97;100.00;100784.97;20852053;28;20726;-68
2022/10/05 04:10:36;;;;;;;37.00;19.85;;;;;;;9.03;100.00;100795.41;20814460;28;20066;-70
2022/10/05 04:20:37;;;;;;;35.35;20.50;;;;;;;9.08;100.00;100808.44;20817536;28;20057;-70
2022/10/05 04:30:39;;;;;;;33.63;20.08;;;;;;;9.05;100.00;100814.53;20860444;28;20064;-68
2022/10/05 04:40:40;;;;;;;35.88;20.08;;;;;;;8.99;100.00;100809.34;20912716;28;20049;-69
2022/10/05 04:50:42;;;;;;;38.55;20.90;;;;;;;8.94;100.00;100803.25;20911628;28;20059;-68
2022/10/05 05:00:44;;;;;;;37.35;21.17;;;;;;;8.86;100.00;100816.34;20910463;28;20048;-69
2022/10/05 05:10:45;;;;;;;39.20;22.50;;;;;;;8.80;100.00;100815.47;20912498;28;20075;-69
2022/10/05 05:20:46;;;;;;;41.38;23.38;;;;;;;8.76;100.00;100822.44;20910981;28;20065;-68
2022/10/05 05:30:48;;;;;;;47.17;26.23;;;;;;;8.85;100.00;100835.47;20908570;28;20071;-69
2022/10/05 05:40:49;;;;;;;46.63;24.20;;;;;;;8.93;100.00;100846.78;20908281;28;20122;-69
2022/10/05 05:50:50;;;;;;;39.20;23.55;;;;;;;8.99;100.00;100861.56;20906339;28;20084;-70
2022/10/05 06:00:52;;;;;;;37.03;21.73;;;;;;;9.13;100.00;100870.25;20906605;28;20532;-69
2022/10/05 06:10:53;;;;;;;36.03;21.92;;;;;;;9.26;100.00;100881.53;20906009;28;20053;-69
2022/10/05 06:20:54;;;;;;;33.35;21.23;;;;;;;9.39;100.00;100890.19;20905113;28;20653;-69
2022/10/05 06:30:56;;;;;;;31.55;20.08;;;;;;;9.54;100.00;100908.47;20905197;28;20053;-68
2022/10/05 06:40:57;;;;;;;39.97;20.33;;;;;;;9.65;100.00;100900.59;20881644;28;20083;-68
2022/10/05 06:50:58;;;;;;;33.85;19.38;;;;;;;9.72;100.00;100899.66;20820050;28;20107;-67
2022/10/05 07:01:00;;;;;;;35.05;20.70;;;;;;;9.82;100.00;100896.16;20819248;28;20502;-67
2022/10/05 07:11:01;;;;;;;35.25;22.23;;;;;;;10.11;100.00;100890.78;20784871;28;20053;-68
2022/10/05 07:21:03;;;;;;;31.10;19.95;;;;;;;10.29;100.00;100895.03;20776348;28;20054;-67
2022/10/05 07:31:04;;;;;;;32.85;21.23;;;;;;;10.61;100.00;100896.56;20780392;28;20461;-67
2022/10/05 07:41:06;;;;;;;33.08;20.58;;;;;;;10.75;100.00;100906.03;20750194;28;20050;-68
2022/10/05 07:51:07;;;;;;;29.58;19.63;;;;;;;10.93;100.00;100904.16;20746857;28;20053;-67
2022/10/05 08:01:09;;;;;;;29.88;19.02;;;;;;;11.17;100.00;100897.81;20741078;28;20058;-68
2022/10/05 08:11:11;;;;;;;32.17;20.80;;;;;;;11.46;100.00;100895.75;20734965;28;20495;-67
2022/10/05 08:21:12;;;;;;;28.35;20.13;;;;;;;11.71;100.00;100882.31;20733581;28;20049;-67
2022/10/05 08:31:13;;;;;;;38.30;22.13;;;;;;;11.76;100.00;100889.25;20815411;28;20061;-67
2022/10/05 08:41:15;;;;;;;26.90;18.88;;;;;;;11.98;100.00;100889.88;20812188;28;20050;-67
2022/10/05 08:51:16;;;;;;;28.73;18.70;;;;;;;12.27;100.00;100878.09;20816011;28;20054;-67
2022/10/05 09:01:18;;;;;;;23.35;16.38;;;;;;;12.78;100.00;100878.13;20814511;28;20065;-67
2022/10/05 09:11:19;;;;;;;22.35;14.93;;;;;;;13.44;100.00;100861.16;20821765;28;20049;-67
2022/10/05 09:21:21;;;;;;;15.95;11.68;;;;;;;14.00;100.00;100844.19;20827792;28;20458;-67
2022/10/05 09:31:22;;;;;;;11.82;8.40;;;;;;;14.64;100.00;100839.16;20863479;28;20115;-67
2022/10/05 09:41:24;;;;;;;9.52;6.40;;;;;;;15.08;100.00;100830.06;20910907;28;20532;-67
2022/10/05 09:51:25;;;;;;;15.93;7.13;;;;;;;15.37;100.00;100823.09;20909473;28;20049;-68
2022/10/05 10:01:27;;;;;;;12.07;5.50;;;;;;;15.69;100.00;100813.41;20907564;28;20610;-67
2022/10/05 10:11:34;;;;;;;9.50;4.68;;;;;;;16.06;100.00;100808.72;20909343;28;20049;-67
2022/10/05 10:21:35;;;;;;;6.43;4.53;;;;;;;16.28;100.00;100798.31;20905613;28;20049;-67
2022/10/05 10:31:37;;;;;;;6.78;3.83;;;;;;;16.70;100.00;100789.00;20905884;28;20122;-67
2022/10/05 10:41:38;;;;;;;10.88;3.70;;;;;;;16.81;100.00;100784.22;20905614;28;20095;-67
2022/10/05 10:51:40;;;;;;;6.90;4.03;;;;;;;17.21;100.00;100783.66;20905201;28;20083;-67
2022/10/05 11:01:41;;;;;;;5.78;3.25;;;;;;;17.52;100.00;100786.00;20903994;28;20048;-67
2022/10/05 11:11:42;;;;;;;6.05;3.22;;;;;;;17.85;100.00;100770.63;20904039;28;20056;-67
2022/10/05 11:21:44;;;;;;;7.85;3.10;;;;;;;18.10;100.00;100759.03;20901322;28;20061;-67
2022/10/05 11:31:45;;;;;;;6.10;3.03;;;;;;;18.37;100.00;100743.75;20900648;28;20045;-67
2022/10/05 11:41:47;;;;;;;7.47;2.60;;;;;;;18.75;100.00;100733.31;20901248;28;20064;-67
2022/10/05 11:51:49;;;;;;;6.25;2.80;;;;;;;18.93;100.00;100717.44;20900415;28;20140;-67
2022/10/05 12:01:51;;;;;;;4.47;2.38;;;;;;;19.23;100.00;100712.50;20900177;28;20148;-67
2022/10/05 12:11:52;;;;;;;5.15;2.47;;;;;;;19.42;100.00;100693.91;20797492;23;20058;-75
2022/10/05 12:22:00;;;;;;;6.38;2.63;;;;;;;19.66;100.00;100694.56;20735874;28;20054;-73
2022/10/05 12:32:02;;;;;;;7.73;2.80;;;;;;;19.73;100.00;100682.69;20818006;28;20520;-74
2022/10/05 12:42:03;;;;;;;6.32;2.90;;;;;;;20.00;100.00;100676.94;20899733;28;20111;-71
2022/10/05 12:52:04;;;;;;;7.70;2.97;;;;;;;20.13;100.00;100667.41;20913830;28;20464;-72
2022/10/05 13:02:07;;;;;;;5.97;2.72;;;;;;;20.14;100.00;100645.22;20912526;28;20052;-73
2022/10/05 13:12:08;;;;;;;5.38;2.63;;;;;;;20.36;100.00;100650.28;20911432;28;20053;-72
2022/10/05 13:22:10;;;;;;;7.30;2.70;;;;;;;20.43;100.00;100642.84;20868511;28;20103;-72
2022/10/05 13:32:11;;;;;;;9.15;2.78;;;;;;;20.46;100.00;100634.69;20870679;28;20045;-72
2022/10/05 13:42:12;;;;;;;5.88;2.58;;;;;;;20.64;100.00;100628.41;20907895;28;20413;-73
2022/10/05 13:52:14;;;;;;;6.35;2.38;;;;;;;20.90;98.24;100628.81;20862395;28;20053;-73
2022/10/05 14:02:15;;;;;;;6.82;2.47;;;;;;;20.85;96.94;100631.72;20822429;28;20049;-73
2022/10/05 14:12:16;;;;;;;9.05;2.25;;;;;;;20.86;98.25;100616.63;20783883;28;20491;-72
2022/10/05 14:22:18;;;;;;;6.53;2.33;;;;;;;20.99;97.41;100612.34;20742199;28;20085;-72
2022/10/05 14:32:19;;;;;;;4.88;2.53;;;;;;;20.98;100.00;100611.47;20828520;28;20041;-73
2022/10/05 14:42:20;;;;;;;5.10;2.70;;;;;;;21.18;96.05;100597.03;20904990;28;20477;-74
2022/10/05 14:52:22;;;;;;;7.18;2.20;;;;;;;21.26;95.50;100589.47;20885463;28;20152;-75
2022/10/05 15:02:23;;;;;;;6.15;2.78;;;;;;;21.23;96.74;100583.47;20752088;28;20053;-76
2022/10/05 15:12:24;;;;;;;5.38;2.40;;;;;;;21.18;95.26;100575.75;20737068;28;20131;-74
2022/10/05 15:22:26;;;;;;;4.60;1.98;;;;;;;21.10;97.94;100569.97;20736826;28;20061;-75
2022/10/05 15:32:28;;;;;;;4.93;2.30;;;;;;;21.08;96.04;100578.97;20825934;28;20052;-75
2022/10/05 15:42:29;;;;;;;4.60;2.03;;;;;;;20.76;99.99;100568.34;20899741;28;20061;-75
2022/10/05 15:52:31;;;;;;;5.35;2.03;;;;;;;20.72;98.43;100562.34;20894905;28;20056;-75
2022/10/05 16:02:32;;;;;;;6.45;1.90;;;;;;;20.40;100.00;100549.91;20798352;28;20359;-75
2022/10/05 16:12:33;;;;;;;6.10;1.75;;;;;;;20.15;100.00;100556.53;20763648;28;20111;-75
2022/10/05 16:22:34;;;;;;;4.32;1.98;;;;;;;19.53;100.00;100568.56;20817391;28;20054;-74
2022/10/05 16:32:42;;;;;;;4.28;1.83;;;;;;;19.04;100.00;100573.63;20860544;28;20065;-74
2022/10/05 16:42:45;;;;;;;9.50;3.50;;;;;;;18.77;100.00;100593.50;20819972;28;20413;-73
2022/10/05 16:52:46;;;;;;;7.10;2.70;;;;;;;18.07;100.00;100598.38;20822735;28;20127;-73
2022/10/05 17:02:48;;;;;;;6.70;2.17;;;;;;;17.82;100.00;100616.22;20818911;28;20057;-73
2022/10/05 17:12:50;;;;;;;6.38;2.10;;;;;;;17.85;100.00;100639.94;20807729;28;20058;-73
2022/10/05 17:22:52;;;;;;;6.15;2.38;;;;;;;17.77;100.00;100657.94;20774469;28;20053;-73
2022/10/05 17:32:54;;;;;;;7.93;2.70;;;;;;;17.57;100.00;100667.53;20834140;28;20156;-73
2022/10/05 17:42:55;;;;;;;5.00;2.17;;;;;;;16.94;100.00;100695.56;20880094;28;20123;-74
2022/10/05 18:03:17;;;;;;;10.98;4.32;;;;;;;16.10;100.00;100720.56;20815200;28;20061;-73
2022/10/05 18:13:18;;;;;;;9.82;4.38;;;;;;;15.75;100.00;100741.94;20913815;22;20057;-72
2022/10/05 18:23:22;;;;;;;10.18;5.10;;;;;;;15.45;100.00;100755.16;20815360;28;20414;-70
2022/10/05 18:33:24;;;;;;;7.38;4.63;;;;;;;15.19;100.00;100749.75;20811354;28;20107;-70
2022/10/05 18:43:25;;;;;;;6.90;3.25;;;;;;;15.03;100.00;100765.16;20811292;28;20077;-70
2022/10/05 18:53:26;;;;;;;7.22;3.50;;;;;;;14.97;100.00;100787.31;20812367;28;20078;-70
2022/10/05 19:03:28;;;;;;;8.57;5.80;;;;;;;14.84;100.00;100801.72;20680042;28;20132;-70
2022/10/05 19:13:36;;;;;;;11.25;6.60;;;;;;;14.66;100.00;100818.00;20906071;28;20403;-71
2022/10/05 19:23:38;;;;;;;9.63;5.72;;;;;;;14.50;100.00;100813.13;20880180;28;20437;-70
2022/10/05 19:33:40;;;;;;;6.82;4.55;;;;;;;14.41;100.00;100828.28;20902818;28;20083;-70
2022/10/05 19:43:41;;;;;;;12.48;4.72;;;;;;;14.23;100.00;100854.19;20877770;28;20045;-71
2022/10/05 19:53:44;;;;;;;13.05;5.70;;;;;;;14.07;100.00;100869.44;20877763;28;20080;-71
2022/10/05 20:03:46;;;;;;;7.45;4.40;;;;;;;14.05;100.00;100889.69;20875591;28;20045;-71
2022/10/05 20:13:47;;;;;;;6.13;3.30;;;;;;;14.15;100.00;100885.09;20811961;28;20064;-71
2022/10/05 20:23:48;;;;;;;8.10;3.97;;;;;;;14.10;100.00;100908.03;20745898;28;20054;-74
2022/10/05 20:33:50;;;;;;;8.20;3.92;;;;;;;14.07;100.00;100923.88;20739468;28;20111;-74
2022/10/05 20:43:51;;;;;;;5.28;3.03;;;;;;;14.05;100.00;100942.34;20738663;28;20585;-74
2022/10/05 20:53:54;;;;;;;9.50;2.85;;;;;;;14.19;100.00;100946.47;20737834;28;20041;-74
2022/10/05 21:03:56;;;;;;;7.55;2.63;;;;;;;14.05;100.00;100960.78;20736158;28;20038;-75
2022/10/05 21:13:57;;;;;;;6.82;3.10;;;;;;;14.05;100.00;100984.47;20736962;28;20042;-74
2022/10/05 21:24:05;;;;;;;7.97;2.85;;;;;;;14.00;100.00;100983.72;20735452;28;20096;-73
2022/10/05 21:34:06;;;;;;;9.45;4.50;;;;;;;14.01;100.00;100987.22;20791065;28;20530;-74
2022/10/05 21:44:08;;;;;;;6.18;3.10;;;;;;;14.27;100.00;100998.06;20815451;28;20049;-75
2022/10/05 21:54:10;;;;;;;5.30;3.10;;;;;;;14.38;100.00;101008.38;20814511;28;20080;-75
2022/10/05 22:04:11;;;;;;;7.05;3.10;;;;;;;14.47;100.00;101013.47;20779116;28;20053;-75
2022/10/05 22:14:12;;;;;;;5.93;2.42;;;;;;;14.58;100.00;101008.84;20739668;28;20302;-75
2022/10/05 22:24:14;;;;;;;6.07;2.67;;;;;;;14.55;100.00;101024.69;20738574;28;20046;-75
2022/10/05 22:34:15;;;;;;;6.13;2.58;;;;;;;14.55;100.00;101037.88;20797571;28;20115;-75
2022/10/05 22:44:16;;;;;;;7.55;2.60;;;;;;;14.52;100.00;101043.25;20818492;28;20049;-74
2022/10/05 22:54:18;;;;;;;11.32;3.05;;;;;;;14.67;100.00;101046.44;20817799;28;20061;-74
2022/10/05 23:04:19;;;;;;;6.32;2.35;;;;;;;14.81;100.00;101065.44;20816409;28;20096;-75
2022/10/05 23:14:20;;;;;;;6.78;2.42;;;;;;;14.79;100.00;101077.78;20817707;28;20049;-74
2022/10/05 23:24:22;;;;;;;9.57;2.58;;;;;;;14.80;100.00;101085.69;20817584;28;20038;-75
2022/10/05 23:34:24;;;;;;;6.72;2.35;;;;;;;14.80;100.00;101092.69;20815798;28;20505;-74
2022/10/05 23:44:25;;;;;;;6.75;2.50;;;;;;;14.93;100.00;101106.47;20816429;28;20049;-74
2022/10/05 23:54:27;;;;;;;10.45;3.30;;;;;;;14.87;100.00;101108.34;20801832;28;20049;-74
